sensor_id;sensor_type;location;lat;lon;timestamp;P1;durP1;ratioP1;P2;durP2;ratioP2
22894;SDS011;11614;52.494;6.976;2023-04-15T00:00:13;5.93;;;2.63;;
22894;SDS011;11614;52.494;6.976;2023-04-15T00:02:40;4.23;;;2.53;;
22894;SDS011;11614;52.494;6.976;2023-04-15T00:05:07;5.40;;;2.83;;
22894;SDS011;11614;52.494;6.976;2023-04-15T00:07:33;4.93;;;2.93;;
22894;SDS011;11614;52.494;6.976;2023-04-15T00:09:59;4.60;;;2.50;;
22894;SDS011;11614;52.494;6.976;2023-04-15T00:12:24;4.53;;;2.57;;
22894;SDS011;11614;52.494;6.976;2023-04-15T00:14:50;4.07;;;2.53;;
22894;SDS011;11614;52.494;6.976;2023-04-15T00:17:17;6.17;;;3.03;;
22894;SDS011;11614;52.494;6.976;2023-04-15T00:19:43;5.83;;;3.10;;
22894;SDS011;11614;52.494;6.976;2023-04-15T00:22:09;5.83;;;3.10;;
22894;SDS011;11614;52.494;6.976;2023-04-15T00:24:36;3.60;;;2.57;;
22894;SDS011;11614;52.494;6.976;2023-04-15T00:27:02;5.20;;;3.20;;
22894;SDS011;11614;52.494;6.976;2023-04-15T00:29:28;6.40;;;2.93;;
22894;SDS011;11614;52.494;6.976;2023-04-15T00:31:54;4.30;;;2.97;;
22894;SDS011;11614;52.494;6.976;2023-04-15T00:34:21;5.23;;;3.27;;
22894;SDS011;11614;52.494;6.976;2023-04-15T00:36:47;5.17;;;3.10;;
22894;SDS011;11614;52.494;6.976;2023-04-15T00:39:13;4.73;;;3.03;;
22894;SDS011;11614;52.494;6.976;2023-04-15T00:41:40;7.77;;;3.70;;
22894;SDS011;11614;52.494;6.976;2023-04-15T00:44:06;6.83;;;3.23;;
22894;SDS011;11614;52.494;6.976;2023-04-15T00:46:32;5.03;;;3.07;;
22894;SDS011;11614;52.494;6.976;2023-04-15T00:49:00;5.40;;;3.50;;
22894;SDS011;11614;52.494;6.976;2023-04-15T00:51:27;6.07;;;3.00;;
22894;SDS011;11614;52.494;6.976;2023-04-15T00:53:55;6.03;;;3.27;;
22894;SDS011;11614;52.494;6.976;2023-04-15T00:56:21;6.83;;;3.50;;
22894;SDS011;11614;52.494;6.976;2023-04-15T00:58:48;7.03;;;3.30;;
22894;SDS011;11614;52.494;6.976;2023-04-15T01:01:14;5.00;;;3.23;;
22894;SDS011;11614;52.494;6.976;2023-04-15T01:03:40;7.03;;;3.70;;
22894;SDS011;11614;52.494;6.976;2023-04-15T01:06:06;6.97;;;3.37;;
22894;SDS011;11614;52.494;6.976;2023-04-15T01:08:32;6.03;;;3.50;;
22894;SDS011;11614;52.494;6.976;2023-04-15T01:11:00;5.17;;;3.30;;
22894;SDS011;11614;52.494;6.976;2023-04-15T01:13:27;6.73;;;3.63;;
22894;SDS011;11614;52.494;6.976;2023-04-15T01:15:55;7.77;;;3.53;;
22894;SDS011;11614;52.494;6.976;2023-04-15T01:18:21;6.47;;;3.70;;
22894;SDS011;11614;52.494;6.976;2023-04-15T01:20:48;6.10;;;3.80;;
22894;SDS011;11614;52.494;6.976;2023-04-15T01:23:14;6.20;;;3.93;;
22894;SDS011;11614;52.494;6.976;2023-04-15T01:25:40;7.90;;;4.23;;
22894;SDS011;11614;52.494;6.976;2023-04-15T01:28:07;8.77;;;4.03;;
22894;SDS011;11614;52.494;6.976;2023-04-15T01:30:33;5.93;;;3.60;;
22894;SDS011;11614;52.494;6.976;2023-04-15T01:32:59;7.20;;;3.70;;
22894;SDS011;11614;52.494;6.976;2023-04-15T01:35:25;6.63;;;3.50;;
22894;SDS011;11614;52.494;6.976;2023-04-15T01:37:52;7.60;;;4.13;;
22894;SDS011;11614;52.494;6.976;2023-04-15T01:40:18;5.77;;;3.37;;
22894;SDS011;11614;52.494;6.976;2023-04-15T01:42:45;8.67;;;4.27;;
22894;SDS011;11614;52.494;6.976;2023-04-15T01:45:11;6.63;;;3.83;;
22894;SDS011;11614;52.494;6.976;2023-04-15T01:47:38;5.67;;;3.70;;
22894;SDS011;11614;52.494;6.976;2023-04-15T01:50:04;7.97;;;4.10;;
22894;SDS011;11614;52.494;6.976;2023-04-15T01:52:30;7.17;;;3.77;;
22894;SDS011;11614;52.494;6.976;2023-04-15T01:54:56;4.70;;;3.63;;
22894;SDS011;11614;52.494;6.976;2023-04-15T01:57:22;5.90;;;4.00;;
22894;SDS011;11614;52.494;6.976;2023-04-15T01:59:48;7.10;;;4.10;;
22894;SDS011;11614;52.494;6.976;2023-04-15T02:02:14;7.10;;;4.47;;
22894;SDS011;11614;52.494;6.976;2023-04-15T02:04:40;8.47;;;3.73;;
22894;SDS011;11614;52.494;6.976;2023-04-15T02:07:06;5.63;;;3.90;;
22894;SDS011;11614;52.494;6.976;2023-04-15T02:09:32;7.00;;;4.30;;
22894;SDS011;11614;52.494;6.976;2023-04-15T02:11:58;8.77;;;4.50;;
22894;SDS011;11614;52.494;6.976;2023-04-15T02:14:24;8.30;;;4.47;;
22894;SDS011;11614;52.494;6.976;2023-04-15T02:16:51;7.43;;;4.17;;
22894;SDS011;11614;52.494;6.976;2023-04-15T02:19:16;8.50;;;4.63;;
22894;SDS011;11614;52.494;6.976;2023-04-15T02:21:42;9.10;;;4.90;;
22894;SDS011;11614;52.494;6.976;2023-04-15T02:24:08;7.57;;;4.60;;
22894;SDS011;11614;52.494;6.976;2023-04-15T02:26:36;9.83;;;5.17;;
22894;SDS011;11614;52.494;6.976;2023-04-15T02:29:02;6.67;;;4.20;;
22894;SDS011;11614;52.494;6.976;2023-04-15T02:31:28;7.87;;;4.77;;
22894;SDS011;11614;52.494;6.976;2023-04-15T02:33:54;7.30;;;4.47;;
22894;SDS011;11614;52.494;6.976;2023-04-15T02:36:20;8.40;;;4.80;;
22894;SDS011;11614;52.494;6.976;2023-04-15T02:38:46;7.43;;;4.30;;
22894;SDS011;11614;52.494;6.976;2023-04-15T02:41:11;9.57;;;4.67;;
22894;SDS011;11614;52.494;6.976;2023-04-15T02:43:37;7.63;;;4.63;;
22894;SDS011;11614;52.494;6.976;2023-04-15T02:46:04;9.03;;;4.70;;
22894;SDS011;11614;52.494;6.976;2023-04-15T02:48:30;9.30;;;5.33;;
22894;SDS011;11614;52.494;6.976;2023-04-15T02:51:14;8.43;;;5.10;;
22894;SDS011;11614;52.494;6.976;2023-04-15T02:53:40;8.43;;;5.40;;
22894;SDS011;11614;52.494;6.976;2023-04-15T02:56:06;9.53;;;5.50;;
22894;SDS011;11614;52.494;6.976;2023-04-15T02:58:33;9.53;;;5.10;;
22894;SDS011;11614;52.494;6.976;2023-04-15T03:00:59;8.63;;;5.60;;
22894;SDS011;11614;52.494;6.976;2023-04-15T03:03:26;7.63;;;5.00;;
22894;SDS011;11614;52.494;6.976;2023-04-15T03:05:52;8.73;;;5.47;;
22894;SDS011;11614;52.494;6.976;2023-04-15T03:08:18;9.67;;;5.63;;
22894;SDS011;11614;52.494;6.976;2023-04-15T03:10:45;8.90;;;5.33;;
22894;SDS011;11614;52.494;6.976;2023-04-15T03:13:11;7.43;;;4.90;;
22894;SDS011;11614;52.494;6.976;2023-04-15T03:15:37;9.73;;;6.03;;
22894;SDS011;11614;52.494;6.976;2023-04-15T03:18:03;8.17;;;5.60;;
22894;SDS011;11614;52.494;6.976;2023-04-15T03:20:29;8.03;;;4.83;;
22894;SDS011;11614;52.494;6.976;2023-04-15T03:22:56;8.27;;;5.67;;
22894;SDS011;11614;52.494;6.976;2023-04-15T03:25:22;6.40;;;4.90;;
22894;SDS011;11614;52.494;6.976;2023-04-15T03:27:48;10.80;;;5.77;;
22894;SDS011;11614;52.494;6.976;2023-04-15T03:30:13;10.93;;;5.60;;
22894;SDS011;11614;52.494;6.976;2023-04-15T03:32:40;10.53;;;6.27;;
22894;SDS011;11614;52.494;6.976;2023-04-15T03:35:06;11.17;;;6.33;;
22894;SDS011;11614;52.494;6.976;2023-04-15T03:37:32;9.00;;;5.30;;
22894;SDS011;11614;52.494;6.976;2023-04-15T03:39:58;10.23;;;5.83;;
22894;SDS011;11614;52.494;6.976;2023-04-15T03:42:24;10.70;;;5.53;;
22894;SDS011;11614;52.494;6.976;2023-04-15T03:44:51;9.73;;;6.00;;
22894;SDS011;11614;52.494;6.976;2023-04-15T03:47:17;13.50;;;6.57;;
22894;SDS011;11614;52.494;6.976;2023-04-15T03:49:42;12.50;;;6.50;;
22894;SDS011;11614;52.494;6.976;2023-04-15T03:52:08;9.83;;;5.80;;
22894;SDS011;11614;52.494;6.976;2023-04-15T03:54:34;8.33;;;5.50;;
22894;SDS011;11614;52.494;6.976;2023-04-15T03:57:00;11.50;;;6.83;;
22894;SDS011;11614;52.494;6.976;2023-04-15T03:59:27;11.97;;;7.00;;
22894;SDS011;11614;52.494;6.976;2023-04-15T04:01:53;11.50;;;7.13;;
22894;SDS011;11614;52.494;6.976;2023-04-15T04:04:19;14.13;;;8.20;;
22894;SDS011;11614;52.494;6.976;2023-04-15T04:06:45;12.17;;;8.00;;
22894;SDS011;11614;52.494;6.976;2023-04-15T04:09:11;12.10;;;8.20;;
22894;SDS011;11614;52.494;6.976;2023-04-15T04:11:37;15.17;;;9.20;;
22894;SDS011;11614;52.494;6.976;2023-04-15T04:14:03;13.40;;;8.07;;
22894;SDS011;11614;52.494;6.976;2023-04-15T04:16:29;14.30;;;8.13;;
22894;SDS011;11614;52.494;6.976;2023-04-15T04:18:55;13.10;;;7.73;;
22894;SDS011;11614;52.494;6.976;2023-04-15T04:21:21;12.23;;;8.50;;
22894;SDS011;11614;52.494;6.976;2023-04-15T04:23:47;12.07;;;7.70;;
22894;SDS011;11614;52.494;6.976;2023-04-15T04:26:13;13.20;;;8.07;;
22894;SDS011;11614;52.494;6.976;2023-04-15T04:28:39;14.13;;;7.90;;
22894;SDS011;11614;52.494;6.976;2023-04-15T04:31:05;16.73;;;8.60;;
22894;SDS011;11614;52.494;6.976;2023-04-15T04:33:32;12.93;;;8.07;;
22894;SDS011;11614;52.494;6.976;2023-04-15T04:35:58;12.50;;;7.87;;
22894;SDS011;11614;52.494;6.976;2023-04-15T04:38:24;15.47;;;9.00;;
22894;SDS011;11614;52.494;6.976;2023-04-15T04:40:49;12.57;;;8.20;;
22894;SDS011;11614;52.494;6.976;2023-04-15T04:43:24;18.23;;;10.00;;
22894;SDS011;11614;52.494;6.976;2023-04-15T04:45:51;12.57;;;8.23;;
22894;SDS011;11614;52.494;6.976;2023-04-15T04:48:16;18.80;;;11.67;;
22894;SDS011;11614;52.494;6.976;2023-04-15T04:50:43;15.87;;;10.07;;
22894;SDS011;11614;52.494;6.976;2023-04-15T04:53:09;20.13;;;10.17;;
22894;SDS011;11614;52.494;6.976;2023-04-15T04:55:35;17.33;;;9.80;;
22894;SDS011;11614;52.494;6.976;2023-04-15T04:58:01;16.17;;;9.30;;
22894;SDS011;11614;52.494;6.976;2023-04-15T05:00:28;17.93;;;10.07;;
22894;SDS011;11614;52.494;6.976;2023-04-15T05:02:54;18.47;;;10.00;;
22894;SDS011;11614;52.494;6.976;2023-04-15T05:05:20;16.87;;;9.77;;
22894;SDS011;11614;52.494;6.976;2023-04-15T05:07:46;16.97;;;9.97;;
22894;SDS011;11614;52.494;6.976;2023-04-15T05:10:14;14.20;;;9.37;;
22894;SDS011;11614;52.494;6.976;2023-04-15T05:12:41;15.03;;;9.60;;
22894;SDS011;11614;52.494;6.976;2023-04-15T05:15:07;17.90;;;10.13;;
22894;SDS011;11614;52.494;6.976;2023-04-15T05:17:33;14.93;;;9.70;;
22894;SDS011;11614;52.494;6.976;2023-04-15T05:19:59;16.00;;;9.20;;
22894;SDS011;11614;52.494;6.976;2023-04-15T05:22:25;17.80;;;9.60;;
22894;SDS011;11614;52.494;6.976;2023-04-15T05:24:51;18.60;;;8.03;;
22894;SDS011;11614;52.494;6.976;2023-04-15T05:27:17;14.03;;;8.63;;
22894;SDS011;11614;52.494;6.976;2023-04-15T05:29:43;13.40;;;8.73;;
22894;SDS011;11614;52.494;6.976;2023-04-15T05:32:09;15.47;;;8.97;;
22894;SDS011;11614;52.494;6.976;2023-04-15T05:34:35;16.13;;;9.47;;
22894;SDS011;11614;52.494;6.976;2023-04-15T05:37:01;13.40;;;8.90;;
22894;SDS011;11614;52.494;6.976;2023-04-15T05:39:27;30.83;;;18.77;;
22894;SDS011;11614;52.494;6.976;2023-04-15T05:41:53;14.67;;;8.60;;
22894;SDS011;11614;52.494;6.976;2023-04-15T05:44:19;13.03;;;8.40;;
22894;SDS011;11614;52.494;6.976;2023-04-15T05:46:45;13.47;;;8.40;;
22894;SDS011;11614;52.494;6.976;2023-04-15T05:49:11;13.70;;;7.93;;
22894;SDS011;11614;52.494;6.976;2023-04-15T05:51:37;17.40;;;9.43;;
22894;SDS011;11614;52.494;6.976;2023-04-15T05:54:03;15.67;;;8.73;;
22894;SDS011;11614;52.494;6.976;2023-04-15T05:56:28;15.67;;;9.30;;
22894;SDS011;11614;52.494;6.976;2023-04-15T05:58:54;12.13;;;7.70;;
22894;SDS011;11614;52.494;6.976;2023-04-15T06:01:20;13.23;;;7.63;;
22894;SDS011;11614;52.494;6.976;2023-04-15T06:03:46;14.63;;;8.57;;
22894;SDS011;11614;52.494;6.976;2023-04-15T06:06:12;17.27;;;9.00;;
22894;SDS011;11614;52.494;6.976;2023-04-15T06:08:39;14.00;;;8.90;;
22894;SDS011;11614;52.494;6.976;2023-04-15T06:11:05;13.37;;;8.33;;
22894;SDS011;11614;52.494;6.976;2023-04-15T06:13:31;15.20;;;8.63;;
22894;SDS011;11614;52.494;6.976;2023-04-15T06:15:56;13.33;;;8.87;;
22894;SDS011;11614;52.494;6.976;2023-04-15T06:18:22;15.43;;;9.13;;
22894;SDS011;11614;52.494;6.976;2023-04-15T06:20:48;13.70;;;7.83;;
22894;SDS011;11614;52.494;6.976;2023-04-15T06:23:13;12.23;;;7.77;;
22894;SDS011;11614;52.494;6.976;2023-04-15T06:25:39;16.00;;;9.53;;
22894;SDS011;11614;52.494;6.976;2023-04-15T06:28:05;15.33;;;8.97;;
22894;SDS011;11614;52.494;6.976;2023-04-15T06:30:30;11.70;;;8.20;;
22894;SDS011;11614;52.494;6.976;2023-04-15T06:32:56;12.00;;;7.63;;
22894;SDS011;11614;52.494;6.976;2023-04-15T06:35:22;12.80;;;8.40;;
22894;SDS011;11614;52.494;6.976;2023-04-15T06:37:48;12.73;;;8.20;;
22894;SDS011;11614;52.494;6.976;2023-04-15T06:40:15;13.07;;;8.63;;
22894;SDS011;11614;52.494;6.976;2023-04-15T06:42:41;17.50;;;9.93;;
22894;SDS011;11614;52.494;6.976;2023-04-15T06:45:07;13.77;;;8.60;;
22894;SDS011;11614;52.494;6.976;2023-04-15T06:47:33;13.10;;;8.17;;
22894;SDS011;11614;52.494;6.976;2023-04-15T06:49:59;14.10;;;8.60;;
22894;SDS011;11614;52.494;6.976;2023-04-15T06:52:24;13.97;;;8.70;;
22894;SDS011;11614;52.494;6.976;2023-04-15T06:54:50;15.03;;;8.17;;
22894;SDS011;11614;52.494;6.976;2023-04-15T06:57:16;17.50;;;9.13;;
22894;SDS011;11614;52.494;6.976;2023-04-15T06:59:42;14.93;;;9.30;;
22894;SDS011;11614;52.494;6.976;2023-04-15T07:02:08;12.00;;;7.83;;
22894;SDS011;11614;52.494;6.976;2023-04-15T07:04:37;13.73;;;8.93;;
22894;SDS011;11614;52.494;6.976;2023-04-15T07:07:03;12.40;;;6.90;;
22894;SDS011;11614;52.494;6.976;2023-04-15T07:09:30;10.97;;;7.27;;
22894;SDS011;11614;52.494;6.976;2023-04-15T07:11:56;15.73;;;9.83;;
22894;SDS011;11614;52.494;6.976;2023-04-15T07:14:22;12.30;;;8.87;;
22894;SDS011;11614;52.494;6.976;2023-04-15T07:16:47;12.47;;;7.63;;
22894;SDS011;11614;52.494;6.976;2023-04-15T07:19:13;12.67;;;8.10;;
22894;SDS011;11614;52.494;6.976;2023-04-15T07:21:39;11.50;;;7.97;;
22894;SDS011;11614;52.494;6.976;2023-04-15T07:24:04;12.77;;;8.13;;
22894;SDS011;11614;52.494;6.976;2023-04-15T07:26:30;11.57;;;7.43;;
22894;SDS011;11614;52.494;6.976;2023-04-15T07:28:56;10.93;;;7.83;;
22894;SDS011;11614;52.494;6.976;2023-04-15T07:31:21;10.83;;;7.23;;
22894;SDS011;11614;52.494;6.976;2023-04-15T07:33:47;10.97;;;6.53;;
22894;SDS011;11614;52.494;6.976;2023-04-15T07:36:13;13.27;;;8.73;;
22894;SDS011;11614;52.494;6.976;2023-04-15T07:38:39;12.48;;;8.70;;
22894;SDS011;11614;52.494;6.976;2023-04-15T07:41:04;11.80;;;8.07;;
22894;SDS011;11614;52.494;6.976;2023-04-15T07:43:30;12.07;;;6.88;;
22894;SDS011;11614;52.494;6.976;2023-04-15T07:45:56;11.73;;;7.03;;
22894;SDS011;11614;52.494;6.976;2023-04-15T07:48:22;13.00;;;7.60;;
22894;SDS011;11614;52.494;6.976;2023-04-15T07:50:48;9.88;;;5.88;;
22894;SDS011;11614;52.494;6.976;2023-04-15T07:53:14;14.27;;;8.97;;
22894;SDS011;11614;52.494;6.976;2023-04-15T07:55:39;10.75;;;7.45;;
22894;SDS011;11614;52.494;6.976;2023-04-15T07:58:05;12.33;;;6.67;;
22894;SDS011;11614;52.494;6.976;2023-04-15T08:00:31;10.10;;;7.30;;
22894;SDS011;11614;52.494;6.976;2023-04-15T08:02:57;11.60;;;6.50;;
22894;SDS011;11614;52.494;6.976;2023-04-15T08:05:23;9.32;;;6.22;;
22894;SDS011;11614;52.494;6.976;2023-04-15T08:07:49;9.88;;;6.22;;
22894;SDS011;11614;52.494;6.976;2023-04-15T08:10:15;11.20;;;5.68;;
22894;SDS011;11614;52.494;6.976;2023-04-15T08:12:41;7.45;;;4.82;;
22894;SDS011;11614;52.494;6.976;2023-04-15T08:15:07;9.70;;;5.80;;
22894;SDS011;11614;52.494;6.976;2023-04-15T08:17:33;7.28;;;4.20;;
22894;SDS011;11614;52.494;6.976;2023-04-15T08:19:59;7.13;;;5.20;;
22894;SDS011;11614;52.494;6.976;2023-04-15T08:22:24;6.25;;;4.07;;
22894;SDS011;11614;52.494;6.976;2023-04-15T08:24:50;11.32;;;6.13;;
22894;SDS011;11614;52.494;6.976;2023-04-15T08:27:16;10.90;;;5.80;;
22894;SDS011;11614;52.494;6.976;2023-04-15T08:29:41;9.00;;;5.15;;
22894;SDS011;11614;52.494;6.976;2023-04-15T08:32:07;9.23;;;6.97;;
22894;SDS011;11614;52.494;6.976;2023-04-15T08:34:33;6.13;;;3.17;;
22894;SDS011;11614;52.494;6.976;2023-04-15T08:36:59;6.30;;;4.45;;
22894;SDS011;11614;52.494;6.976;2023-04-15T08:39:25;7.40;;;3.63;;
22894;SDS011;11614;52.494;6.976;2023-04-15T08:41:53;5.53;;;3.85;;
22894;SDS011;11614;52.494;6.976;2023-04-15T08:44:26;6.60;;;4.72;;
22894;SDS011;11614;52.494;6.976;2023-04-15T08:46:56;8.13;;;4.40;;
22894;SDS011;11614;52.494;6.976;2023-04-15T08:49:25;7.00;;;4.25;;
22894;SDS011;11614;52.494;6.976;2023-04-15T08:51:52;8.35;;;4.55;;
22894;SDS011;11614;52.494;6.976;2023-04-15T08:54:20;6.30;;;3.80;;
22894;SDS011;11614;52.494;6.976;2023-04-15T08:56:46;5.70;;;3.90;;
22894;SDS011;11614;52.494;6.976;2023-04-15T08:59:13;4.72;;;3.35;;
22894;SDS011;11614;52.494;6.976;2023-04-15T09:01:39;6.40;;;4.03;;
22894;SDS011;11614;52.494;6.976;2023-04-15T09:04:05;10.27;;;5.22;;
22894;SDS011;11614;52.494;6.976;2023-04-15T09:06:32;5.00;;;3.00;;
22894;SDS011;11614;52.494;6.976;2023-04-15T09:08:58;7.05;;;3.67;;
22894;SDS011;11614;52.494;6.976;2023-04-15T09:11:23;7.88;;;4.53;;
22894;SDS011;11614;52.494;6.976;2023-04-15T09:13:49;4.95;;;3.10;;
22894;SDS011;11614;52.494;6.976;2023-04-15T09:16:16;6.20;;;3.33;;
22894;SDS011;11614;52.494;6.976;2023-04-15T09:18:42;4.70;;;2.78;;
22894;SDS011;11614;52.494;6.976;2023-04-15T09:21:08;4.65;;;2.97;;
22894;SDS011;11614;52.494;6.976;2023-04-15T09:23:36;4.50;;;3.70;;
22894;SDS011;11614;52.494;6.976;2023-04-15T09:26:03;5.20;;;4.07;;
22894;SDS011;11614;52.494;6.976;2023-04-15T09:28:29;5.60;;;3.65;;
22894;SDS011;11614;52.494;6.976;2023-04-15T09:30:56;4.65;;;2.75;;
22894;SDS011;11614;52.494;6.976;2023-04-15T09:33:25;6.03;;;3.53;;
22894;SDS011;11614;52.494;6.976;2023-04-15T09:36:04;4.10;;;3.22;;
22894;SDS011;11614;52.494;6.976;2023-04-15T09:38:30;7.22;;;2.58;;
22894;SDS011;11614;52.494;6.976;2023-04-15T09:40:56;3.30;;;2.45;;
22894;SDS011;11614;52.494;6.976;2023-04-15T09:43:25;2.97;;;2.25;;
22894;SDS011;11614;52.494;6.976;2023-04-15T09:46:02;4.60;;;2.90;;
22894;SDS011;11614;52.494;6.976;2023-04-15T09:48:28;4.93;;;2.83;;
22894;SDS011;11614;52.494;6.976;2023-04-15T09:50:58;3.13;;;2.30;;
22894;SDS011;11614;52.494;6.976;2023-04-15T09:53:25;3.35;;;1.80;;
22894;SDS011;11614;52.494;6.976;2023-04-15T09:55:52;4.72;;;2.58;;
22894;SDS011;11614;52.494;6.976;2023-04-15T09:58:26;5.32;;;2.95;;
22894;SDS011;11614;52.494;6.976;2023-04-15T10:00:53;4.28;;;2.78;;
22894;SDS011;11614;52.494;6.976;2023-04-15T10:03:22;6.03;;;3.17;;
22894;SDS011;11614;52.494;6.976;2023-04-15T10:05:56;5.88;;;2.55;;
22894;SDS011;11614;52.494;6.976;2023-04-15T10:08:24;2.33;;;1.42;;
22894;SDS011;11614;52.494;6.976;2023-04-15T10:10:55;6.25;;;2.45;;
22894;SDS011;11614;52.494;6.976;2023-04-15T10:13:24;3.08;;;2.28;;
22894;SDS011;11614;52.494;6.976;2023-04-15T10:16:05;3.33;;;1.77;;
22894;SDS011;11614;52.494;6.976;2023-04-15T10:18:36;5.00;;;2.55;;
22894;SDS011;11614;52.494;6.976;2023-04-15T10:21:04;3.05;;;1.85;;
22894;SDS011;11614;52.494;6.976;2023-04-15T10:23:31;4.60;;;2.38;;
22894;SDS011;11614;52.494;6.976;2023-04-15T10:25:57;3.28;;;1.67;;
22894;SDS011;11614;52.494;6.976;2023-04-15T10:28:24;2.53;;;2.13;;
22894;SDS011;11614;52.494;6.976;2023-04-15T10:30:51;2.80;;;2.03;;
22894;SDS011;11614;52.494;6.976;2023-04-15T10:33:18;4.68;;;2.30;;
22894;SDS011;11614;52.494;6.976;2023-04-15T10:35:46;2.92;;;2.08;;
22894;SDS011;11614;52.494;6.976;2023-04-15T10:38:33;3.00;;;2.28;;
22894;SDS011;11614;52.494;6.976;2023-04-15T10:41:13;2.55;;;1.50;;
22894;SDS011;11614;52.494;6.976;2023-04-15T10:43:45;3.67;;;1.65;;
22894;SDS011;11614;52.494;6.976;2023-04-15T10:48:48;2.15;;;1.42;;
22894;SDS011;11614;52.494;6.976;2023-04-15T10:51:15;2.97;;;2.10;;
22894;SDS011;11614;52.494;6.976;2023-04-15T10:53:41;2.78;;;2.22;;
22894;SDS011;11614;52.494;6.976;2023-04-15T10:56:07;3.35;;;1.38;;
22894;SDS011;11614;52.494;6.976;2023-04-15T10:58:41;2.53;;;1.55;;
22894;SDS011;11614;52.494;6.976;2023-04-15T11:01:07;4.35;;;2.08;;
22894;SDS011;11614;52.494;6.976;2023-04-15T11:03:37;2.28;;;1.60;;
22894;SDS011;11614;52.494;6.976;2023-04-15T11:06:05;2.40;;;1.95;;
22894;SDS011;11614;52.494;6.976;2023-04-15T11:11:20;3.88;;;1.98;;
22894;SDS011;11614;52.494;6.976;2023-04-15T11:13:46;3.72;;;2.10;;
22894;SDS011;11614;52.494;6.976;2023-04-15T11:16:13;1.98;;;1.30;;
22894;SDS011;11614;52.494;6.976;2023-04-15T11:18:39;2.65;;;1.42;;
22894;SDS011;11614;52.494;6.976;2023-04-15T11:21:05;3.13;;;1.77;;
22894;SDS011;11614;52.494;6.976;2023-04-15T11:23:38;3.13;;;1.77;;
22894;SDS011;11614;52.494;6.976;2023-04-15T11:26:08;2.20;;;1.65;;
22894;SDS011;11614;52.494;6.976;2023-04-15T11:28:36;4.82;;;1.85;;
22894;SDS011;11614;52.494;6.976;2023-04-15T11:33:34;3.05;;;1.75;;
22894;SDS011;11614;52.494;6.976;2023-04-15T11:36:00;5.28;;;2.00;;
22894;SDS011;11614;52.494;6.976;2023-04-15T11:38:28;2.47;;;1.83;;
22894;SDS011;11614;52.494;6.976;2023-04-15T11:40:55;2.55;;;1.52;;
22894;SDS011;11614;52.494;6.976;2023-04-15T11:43:23;3.65;;;2.13;;
22894;SDS011;11614;52.494;6.976;2023-04-15T11:48:21;4.70;;;2.00;;
22894;SDS011;11614;52.494;6.976;2023-04-15T11:50:52;4.05;;;1.85;;
22894;SDS011;11614;52.494;6.976;2023-04-15T11:53:22;4.32;;;1.60;;
22894;SDS011;11614;52.494;6.976;2023-04-15T11:55:49;2.53;;;1.23;;
22894;SDS011;11614;52.494;6.976;2023-04-15T11:58:23;3.03;;;2.25;;
22894;SDS011;11614;52.494;6.976;2023-04-15T12:00:54;2.97;;;1.90;;
22894;SDS011;11614;52.494;6.976;2023-04-15T12:14:04;2.22;;;1.40;;
22894;SDS011;11614;52.494;6.976;2023-04-15T12:16:47;3.65;;;1.80;;
22894;SDS011;11614;52.494;6.976;2023-04-15T12:19:14;2.50;;;1.60;;
22894;SDS011;11614;52.494;6.976;2023-04-15T12:21:48;2.47;;;1.45;;
22894;SDS011;11614;52.494;6.976;2023-04-15T12:24:14;5.00;;;1.42;;
22894;SDS011;11614;52.494;6.976;2023-04-15T12:26:44;4.32;;;1.92;;
22894;SDS011;11614;52.494;6.976;2023-04-15T12:29:15;3.55;;;1.77;;
22894;SDS011;11614;52.494;6.976;2023-04-15T12:31:51;1.58;;;1.10;;
22894;SDS011;11614;52.494;6.976;2023-04-15T12:34:31;4.28;;;1.33;;
22894;SDS011;11614;52.494;6.976;2023-04-15T12:36:58;6.78;;;3.22;;
22894;SDS011;11614;52.494;6.976;2023-04-15T12:39:26;7.25;;;4.45;;
22894;SDS011;11614;52.494;6.976;2023-04-15T12:41:53;5.15;;;3.30;;
22894;SDS011;11614;52.494;6.976;2023-04-15T12:44:20;5.18;;;2.78;;
22894;SDS011;11614;52.494;6.976;2023-04-15T12:46:47;4.30;;;2.20;;
22894;SDS011;11614;52.494;6.976;2023-04-15T12:49:14;4.20;;;2.50;;
22894;SDS011;11614;52.494;6.976;2023-04-15T12:51:40;3.22;;;2.08;;
22894;SDS011;11614;52.494;6.976;2023-04-15T12:54:06;1.92;;;1.15;;
22894;SDS011;11614;52.494;6.976;2023-04-15T12:56:32;2.75;;;2.05;;
22894;SDS011;11614;52.494;6.976;2023-04-15T12:58:58;3.25;;;1.20;;
22894;SDS011;11614;52.494;6.976;2023-04-15T13:01:23;3.78;;;2.50;;
22894;SDS011;11614;52.494;6.976;2023-04-15T13:03:49;3.35;;;1.77;;
22894;SDS011;11614;52.494;6.976;2023-04-15T13:06:15;5.03;;;3.42;;
22894;SDS011;11614;52.494;6.976;2023-04-15T13:08:41;3.88;;;2.08;;
22894;SDS011;11614;52.494;6.976;2023-04-15T13:11:07;4.00;;;2.05;;
22894;SDS011;11614;52.494;6.976;2023-04-15T13:13:32;2.30;;;1.70;;
22894;SDS011;11614;52.494;6.976;2023-04-15T13:15:58;3.35;;;1.40;;
22894;SDS011;11614;52.494;6.976;2023-04-15T13:18:24;2.50;;;1.20;;
22894;SDS011;11614;52.494;6.976;2023-04-15T13:20:50;3.55;;;0.90;;
22894;SDS011;11614;52.494;6.976;2023-04-15T13:23:16;2.92;;;1.85;;
22894;SDS011;11614;52.494;6.976;2023-04-15T13:25:42;1.70;;;1.15;;
22894;SDS011;11614;52.494;6.976;2023-04-15T13:28:11;2.95;;;1.35;;
22894;SDS011;11614;52.494;6.976;2023-04-15T13:30:37;3.70;;;2.15;;
22894;SDS011;11614;52.494;6.976;2023-04-15T13:33:03;5.20;;;2.33;;
22894;SDS011;11614;52.494;6.976;2023-04-15T13:35:30;2.00;;;1.40;;
22894;SDS011;11614;52.494;6.976;2023-04-15T13:37:56;3.22;;;1.50;;
22894;SDS011;11614;52.494;6.976;2023-04-15T13:40:22;6.10;;;1.27;;
22894;SDS011;11614;52.494;6.976;2023-04-15T13:42:48;3.03;;;1.50;;
22894;SDS011;11614;52.494;6.976;2023-04-15T13:45:14;2.63;;;1.17;;
22894;SDS011;11614;52.494;6.976;2023-04-15T13:47:40;2.15;;;1.00;;
22894;SDS011;11614;52.494;6.976;2023-04-15T13:50:06;3.78;;;1.42;;
22894;SDS011;11614;52.494;6.976;2023-04-15T13:52:31;2.97;;;1.65;;
22894;SDS011;11614;52.494;6.976;2023-04-15T13:54:57;2.15;;;0.60;;
22894;SDS011;11614;52.494;6.976;2023-04-15T13:57:24;9.85;;;4.75;;
22894;SDS011;11614;52.494;6.976;2023-04-15T13:59:50;3.40;;;2.03;;
22894;SDS011;11614;52.494;6.976;2023-04-15T14:02:16;4.05;;;0.90;;
22894;SDS011;11614;52.494;6.976;2023-04-15T14:04:42;5.25;;;1.42;;
22894;SDS011;11614;52.494;6.976;2023-04-15T14:07:08;2.22;;;1.33;;
22894;SDS011;11614;52.494;6.976;2023-04-15T14:09:33;3.85;;;1.40;;
22894;SDS011;11614;52.494;6.976;2023-04-15T14:11:59;4.22;;;2.25;;
22894;SDS011;11614;52.494;6.976;2023-04-15T14:14:26;2.88;;;1.30;;
22894;SDS011;11614;52.494;6.976;2023-04-15T14:16:51;3.33;;;0.85;;
22894;SDS011;11614;52.494;6.976;2023-04-15T14:19:17;1.98;;;0.88;;
22894;SDS011;11614;52.494;6.976;2023-04-15T14:21:43;3.13;;;1.38;;
22894;SDS011;11614;52.494;6.976;2023-04-15T14:24:09;3.78;;;1.38;;
22894;SDS011;11614;52.494;6.976;2023-04-15T14:26:35;2.25;;;0.82;;
22894;SDS011;11614;52.494;6.976;2023-04-15T14:29:01;3.72;;;1.52;;
22894;SDS011;11614;52.494;6.976;2023-04-15T14:31:27;3.88;;;1.63;;
22894;SDS011;11614;52.494;6.976;2023-04-15T14:33:53;0.93;;;0.52;;
22894;SDS011;11614;52.494;6.976;2023-04-15T14:36:18;2.72;;;1.00;;
22894;SDS011;11614;52.494;6.976;2023-04-15T14:38:44;3.85;;;1.70;;
22894;SDS011;11614;52.494;6.976;2023-04-15T14:41:09;2.60;;;1.20;;
22894;SDS011;11614;52.494;6.976;2023-04-15T14:43:36;1.25;;;0.70;;
22894;SDS011;11614;52.494;6.976;2023-04-15T14:46:02;5.43;;;1.08;;
22894;SDS011;11614;52.494;6.976;2023-04-15T14:48:28;1.80;;;0.85;;
22894;SDS011;11614;52.494;6.976;2023-04-15T14:50:55;2.20;;;0.73;;
22894;SDS011;11614;52.494;6.976;2023-04-15T14:53:21;2.50;;;1.03;;
22894;SDS011;11614;52.494;6.976;2023-04-15T14:55:47;2.20;;;1.00;;
22894;SDS011;11614;52.494;6.976;2023-04-15T14:58:13;4.53;;;1.90;;
22894;SDS011;11614;52.494;6.976;2023-04-15T15:00:39;4.13;;;1.30;;